createdAt,value
2024-01-24T00:19:26.203Z,4
2024-01-24T00:24:56.295Z,5
2024-01-24T00:35:58.372Z,3
2024-01-24T00:47:00.534Z,4
2024-01-24T00:58:02.693Z,2
2024-01-24T01:20:03.395Z,3
2024-01-24T01:25:33.571Z,5
2024-01-24T01:31:03.737Z,3
2024-01-24T01:36:33.926Z,2
2024-01-24T01:47:34.275Z,4
2024-01-24T01:53:04.444Z,3
2024-01-24T02:04:04.831Z,4
2024-01-24T02:15:05.120Z,3
2024-01-24T02:20:35.298Z,2
2024-01-24T02:26:05.504Z,3
2024-01-24T02:31:35.660Z,4
2024-01-24T02:48:06.257Z,3
2024-01-24T03:04:36.704Z,2
2024-01-24T03:10:06.908Z,4
2024-01-24T03:15:37.044Z,3
2024-01-24T03:32:07.571Z,2
2024-01-24T03:37:37.751Z,3
2024-01-24T03:48:38.136Z,2
2024-01-24T03:54:08.264Z,3
2024-01-24T03:59:38.415Z,5
2024-01-24T04:05:08.597Z,4
2024-01-24T04:16:08.981Z,3
2024-01-24T04:21:39.187Z,5
2024-01-24T04:27:09.281Z,6
2024-01-24T04:32:39.536Z,3
2024-01-24T04:38:09.658Z,4
2024-01-24T04:49:16.076Z,3
2024-01-24T05:11:10.677Z,2
2024-01-24T05:27:41.267Z,1
2024-01-24T05:38:41.537Z,4
2024-01-24T05:44:11.686Z,1
2024-01-24T05:49:41.904Z,5
2024-01-24T05:55:12.039Z,4
2024-01-24T06:06:12.617Z,6
2024-01-24T06:11:42.609Z,5
2024-01-24T06:17:12.735Z,8
2024-01-24T06:22:42.926Z,6
2024-01-24T06:39:13.436Z,9
2024-01-24T06:44:45.106Z,5
2024-01-24T06:50:13.776Z,6
2024-01-24T07:01:14.181Z,13
2024-01-24T07:12:14.506Z,12
2024-01-24T07:17:44.696Z,17
2024-01-24T07:23:14.807Z,12
2024-01-24T07:28:44.987Z,15
2024-01-24T07:39:47.157Z,11
2024-01-24T07:45:17.355Z,10
2024-01-24T07:50:47.492Z,18
2024-01-24T07:56:20.620Z,16
2024-01-24T08:01:47.904Z,20
2024-01-24T08:07:18.059Z,15
2024-01-24T08:12:48.212Z,12
2024-01-24T08:29:22.353Z,15
2024-01-24T08:34:48.901Z,12
2024-01-24T08:40:19.024Z,16
2024-01-24T08:45:50.543Z,12
2024-01-24T08:51:19.409Z,17
2024-01-24T08:56:49.732Z,10
2024-01-24T09:02:19.732Z,18
2024-01-24T09:07:49.912Z,13
2024-01-24T09:13:20.093Z,17
2024-01-24T09:18:50.384Z,8
2024-01-24T09:24:20.416Z,16
2024-01-24T09:29:50.600Z,13
2024-01-24T09:35:20.899Z,16
2024-01-24T09:40:50.974Z,9
2024-01-24T09:46:21.114Z,14
2024-01-24T09:51:51.306Z,17
2024-01-24T09:57:21.510Z,20
2024-01-24T10:02:51.642Z,17
2024-01-24T10:08:22.161Z,19
2024-01-24T10:13:51.973Z,14
2024-01-24T10:19:22.173Z,16
2024-01-24T10:24:52.361Z,18
2024-01-24T10:30:22.503Z,16
2024-01-24T10:35:53.464Z,22
2024-01-24T10:41:22.843Z,14
2024-01-24T10:52:23.176Z,17
2024-01-24T10:57:53.377Z,15
2024-01-24T11:08:55.514Z,14
2024-01-24T11:14:25.692Z,15
2024-01-24T11:19:55.944Z,17
2024-01-24T11:25:26.022Z,15
2024-01-24T11:30:56.277Z,14
2024-01-24T11:36:26.404Z,17
2024-01-24T11:41:56.541Z,18
2024-01-24T11:47:26.733Z,14
2024-01-24T11:52:56.893Z,19
2024-01-24T11:58:27.110Z,15
2024-01-24T12:03:57.317Z,20
2024-01-24T12:09:27.415Z,21
2024-01-24T12:14:59.068Z,14
2024-01-24T12:20:27.842Z,18
2024-01-24T12:25:57.966Z,15
2024-01-24T12:31:28.998Z,18
2024-01-24T12:36:58.318Z,20
2024-01-24T12:42:28.560Z,16
2024-01-24T12:59:00.761Z,22
2024-01-24T13:10:03.839Z,20
2024-01-24T13:21:05.099Z,13
2024-01-24T13:32:07.256Z,16
2024-01-24T13:37:37.642Z,15
2024-01-24T13:43:07.684Z,18
2024-01-24T13:54:09.783Z,15
2024-01-24T14:05:12.108Z,10
2024-01-24T14:16:14.127Z,24
2024-01-24T14:27:16.262Z,13
2024-01-24T14:38:18.430Z,12
2024-01-24T14:49:20.645Z,14
2024-01-24T15:00:22.811Z,24
2024-01-24T15:11:24.907Z,14
2024-01-24T15:22:27.127Z,16
2024-01-24T15:33:29.309Z,19
2024-01-24T15:44:31.397Z,13
2024-01-24T15:55:33.555Z,19
2024-01-24T16:06:35.745Z,30
2024-01-24T16:17:37.879Z,18
2024-01-24T16:23:08.055Z,20
2024-01-24T16:34:10.320Z,14
2024-01-24T16:39:40.414Z,18
2024-01-24T16:45:10.646Z,19
2024-01-24T16:50:40.732Z,15
2024-01-24T16:56:10.894Z,14
2024-01-24T17:01:41.110Z,13
2024-01-24T17:07:11.403Z,14
2024-01-24T17:12:41.448Z,22
2024-01-24T17:18:11.577Z,12
2024-01-24T17:23:41.754Z,13
2024-01-24T17:29:11.911Z,23
2024-01-24T17:40:14.137Z,14
2024-01-24T17:51:16.291Z,15
2024-01-24T18:02:18.410Z,10
2024-01-24T18:13:20.593Z,12
2024-01-24T18:24:22.752Z,14
2024-01-24T18:46:27.006Z,12
2024-01-24T18:57:29.206Z,17
2024-01-24T19:02:59.343Z,16
2024-01-24T19:08:29.516Z,15
2024-01-24T19:13:59.696Z,16
2024-01-24T19:19:29.870Z,10
2024-01-24T19:25:00.082Z,7
2024-01-24T19:30:30.204Z,13
2024-01-24T19:36:00.384Z,16
2024-01-24T19:41:30.537Z,13
2024-01-24T19:47:00.711Z,18
2024-01-24T20:03:33.368Z,14
2024-01-24T20:31:07.606Z,18
2024-01-24T20:36:37.770Z,8
2024-01-24T20:42:08.663Z,10
2024-01-24T20:47:38.110Z,18
2024-01-24T20:58:40.213Z,10
2024-01-24T21:04:10.457Z,18
2024-01-24T21:09:40.634Z,26
2024-01-24T21:15:10.740Z,14
2024-01-24T21:20:40.965Z,19
2024-01-24T21:26:11.069Z,18
2024-01-24T21:31:41.239Z,16
2024-01-24T21:37:11.489Z,12
2024-01-24T21:42:41.625Z,14
2024-01-24T21:48:11.821Z,11
2024-01-24T21:53:41.937Z,13
2024-01-24T21:59:12.117Z,19
2024-01-24T22:04:42.352Z,18
2024-01-24T22:10:12.519Z,13
2024-01-24T22:15:42.668Z,14
2024-01-24T22:21:12.797Z,25
2024-01-24T22:26:42.970Z,27
2024-01-24T22:32:13.181Z,12
2024-01-24T22:37:43.324Z,20
2024-01-24T22:43:13.513Z,12
2024-01-24T22:48:43.794Z,10
2024-01-24T22:54:13.843Z,19
2024-01-24T22:59:44.021Z,16
2024-01-24T23:05:14.259Z,12
2024-01-24T23:10:44.363Z,8
2024-01-24T23:16:14.544Z,11
2024-01-24T23:21:44.713Z,15
2024-01-24T23:32:45.077Z,17
2024-01-24T23:38:15.244Z,16
2024-01-24T23:43:45.405Z,13
2024-01-24T23:49:15.862Z,17
2024-01-24T23:54:45.758Z,18
